sensor_id;sensor_type;location;lat;lon;timestamp;P1;durP1;ratioP1;P2;durP2;ratioP2
35239;SDS011;21376;50.954;4.716;2024-01-10T00:01:10;21.77;;;11.13;;
35239;SDS011;21376;50.954;4.716;2024-01-10T00:03:50;18.85;;;9.55;;
35239;SDS011;21376;50.954;4.716;2024-01-10T00:06:30;18.70;;;8.77;;
35239;SDS011;21376;50.954;4.716;2024-01-10T00:08:59;20.38;;;9.68;;
35239;SDS011;21376;50.954;4.716;2024-01-10T00:13:53;17.23;;;8.73;;
35239;SDS011;21376;50.954;4.716;2024-01-10T00:21:47;18.65;;;8.95;;
35239;SDS011;21376;50.954;4.716;2024-01-10T00:26:46;22.60;;;8.65;;
35239;SDS011;21376;50.954;4.716;2024-01-10T00:31:41;21.80;;;10.35;;
35239;SDS011;21376;50.954;4.716;2024-01-10T00:34:07;20.85;;;9.13;;
35239;SDS011;21376;50.954;4.716;2024-01-10T01:05:56;16.55;;;8.25;;
35239;SDS011;21376;50.954;4.716;2024-01-10T01:08:25;24.20;;;9.43;;
35239;SDS011;21376;50.954;4.716;2024-01-10T01:10:57;19.67;;;8.55;;
35239;SDS011;21376;50.954;4.716;2024-01-10T01:16:00;18.13;;;9.32;;
35239;SDS011;21376;50.954;4.716;2024-01-10T01:18:26;17.30;;;10.02;;
35239;SDS011;21376;50.954;4.716;2024-01-10T01:20:55;27.17;;;11.38;;
35239;SDS011;21376;50.954;4.716;2024-01-10T01:23:21;20.70;;;9.88;;
35239;SDS011;21376;50.954;4.716;2024-01-10T01:25:48;22.90;;;10.95;;
35239;SDS011;21376;50.954;4.716;2024-01-10T01:30:46;31.70;;;9.95;;
35239;SDS011;21376;50.954;4.716;2024-01-10T01:35:44;21.48;;;8.95;;
35239;SDS011;21376;50.954;4.716;2024-01-10T01:38:11;20.70;;;8.77;;
35239;SDS011;21376;50.954;4.716;2024-01-10T01:40:40;20.42;;;9.88;;
35239;SDS011;21376;50.954;4.716;2024-01-10T01:43:25;18.90;;;9.02;;
35239;SDS011;21376;50.954;4.716;2024-01-10T01:45:54;19.17;;;8.85;;
35239;SDS011;21376;50.954;4.716;2024-01-10T01:48:22;19.45;;;8.73;;
35239;SDS011;21376;50.954;4.716;2024-01-10T01:51:08;18.40;;;8.95;;
35239;SDS011;21376;50.954;4.716;2024-01-10T01:53:36;18.73;;;8.85;;
35239;SDS011;21376;50.954;4.716;2024-01-10T01:56:06;22.50;;;9.80;;
35239;SDS011;21376;50.954;4.716;2024-01-10T01:58:32;16.17;;;8.80;;
35239;SDS011;21376;50.954;4.716;2024-01-10T02:01:04;20.95;;;9.77;;
35239;SDS011;21376;50.954;4.716;2024-01-10T02:03:30;20.15;;;9.32;;
35239;SDS011;21376;50.954;4.716;2024-01-10T02:06:00;23.38;;;9.93;;
35239;SDS011;21376;50.954;4.716;2024-01-10T02:08:32;19.00;;;9.65;;
35239;SDS011;21376;50.954;4.716;2024-01-10T02:13:33;18.33;;;9.38;;
35239;SDS011;21376;50.954;4.716;2024-01-10T02:18:34;19.30;;;9.13;;
35239;SDS011;21376;50.954;4.716;2024-01-10T02:21:08;26.05;;;9.85;;
35239;SDS011;21376;50.954;4.716;2024-01-10T02:23:35;19.27;;;9.25;;
35239;SDS011;21376;50.954;4.716;2024-01-10T02:26:01;24.50;;;9.95;;
35239;SDS011;21376;50.954;4.716;2024-01-10T02:30:58;21.70;;;10.15;;
35239;SDS011;21376;50.954;4.716;2024-01-10T02:33:27;22.98;;;10.30;;
35239;SDS011;21376;50.954;4.716;2024-01-10T02:35:53;21.23;;;10.20;;
35239;SDS011;21376;50.954;4.716;2024-01-10T02:38:19;20.52;;;9.27;;
35239;SDS011;21376;50.954;4.716;2024-01-10T02:40:49;22.83;;;9.82;;
35239;SDS011;21376;50.954;4.716;2024-01-10T02:43:17;22.13;;;10.65;;
35239;SDS011;21376;50.954;4.716;2024-01-10T02:45:44;33.80;;;12.40;;
35239;SDS011;21376;50.954;4.716;2024-01-10T02:48:13;29.45;;;12.25;;
35239;SDS011;21376;50.954;4.716;2024-01-10T02:50:42;29.20;;;10.82;;
35239;SDS011;21376;50.954;4.716;2024-01-10T02:55:42;26.52;;;10.32;;
35239;SDS011;21376;50.954;4.716;2024-01-10T03:00:37;17.80;;;8.55;;
35239;SDS011;21376;50.954;4.716;2024-01-10T03:03:14;26.40;;;10.70;;
35239;SDS011;21376;50.954;4.716;2024-01-10T03:08:12;25.77;;;10.13;;
35239;SDS011;21376;50.954;4.716;2024-01-10T03:13:10;21.40;;;9.65;;
35239;SDS011;21376;50.954;4.716;2024-01-10T03:15:37;26.10;;;11.85;;
35239;SDS011;21376;50.954;4.716;2024-01-10T03:18:07;22.33;;;9.38;;
35239;SDS011;21376;50.954;4.716;2024-01-10T03:23:03;25.60;;;10.43;;
35239;SDS011;21376;50.954;4.716;2024-01-10T03:28:01;20.38;;;10.10;;
35239;SDS011;21376;50.954;4.716;2024-01-10T03:30:31;23.13;;;10.90;;
35239;SDS011;21376;50.954;4.716;2024-01-10T03:32:57;22.10;;;10.30;;
35239;SDS011;21376;50.954;4.716;2024-01-10T03:35:33;22.38;;;10.07;;
35239;SDS011;21376;50.954;4.716;2024-01-10T03:40:36;26.63;;;11.63;;
35239;SDS011;21376;50.954;4.716;2024-01-10T03:45:33;23.52;;;9.13;;
35239;SDS011;21376;50.954;4.716;2024-01-10T03:48:00;20.67;;;9.85;;
35239;SDS011;21376;50.954;4.716;2024-01-10T03:50:27;26.05;;;10.50;;
35239;SDS011;21376;50.954;4.716;2024-01-10T03:52:56;24.55;;;10.20;;
35239;SDS011;21376;50.954;4.716;2024-01-10T03:57:51;25.55;;;10.93;;
35239;SDS011;21376;50.954;4.716;2024-01-10T04:00:20;22.20;;;9.48;;
35239;SDS011;21376;50.954;4.716;2024-01-10T04:02:46;24.48;;;9.98;;
35239;SDS011;21376;50.954;4.716;2024-01-10T04:05:12;30.80;;;10.80;;
35239;SDS011;21376;50.954;4.716;2024-01-10T04:07:41;24.40;;;10.02;;
35239;SDS011;21376;50.954;4.716;2024-01-10T04:10:10;28.30;;;10.35;;
35239;SDS011;21376;50.954;4.716;2024-01-10T04:12:42;26.70;;;10.02;;
35239;SDS011;21376;50.954;4.716;2024-01-10T04:15:10;24.30;;;11.25;;
35239;SDS011;21376;50.954;4.716;2024-01-10T04:17:38;28.88;;;11.38;;
35239;SDS011;21376;50.954;4.716;2024-01-10T04:20:04;22.17;;;9.40;;
35239;SDS011;21376;50.954;4.716;2024-01-10T04:22:31;28.60;;;10.88;;
35239;SDS011;21376;50.954;4.716;2024-01-10T04:25:01;20.40;;;10.50;;
35239;SDS011;21376;50.954;4.716;2024-01-10T04:30:02;21.45;;;10.82;;
35239;SDS011;21376;50.954;4.716;2024-01-10T04:32:28;21.83;;;11.05;;
35239;SDS011;21376;50.954;4.716;2024-01-10T04:34:56;25.13;;;11.20;;
35239;SDS011;21376;50.954;4.716;2024-01-10T04:37:23;24.55;;;10.63;;
35239;SDS011;21376;50.954;4.716;2024-01-10T04:39:54;22.20;;;10.43;;
35239;SDS011;21376;50.954;4.716;2024-01-10T04:42:20;23.30;;;10.50;;
35239;SDS011;21376;50.954;4.716;2024-01-10T04:47:15;27.48;;;10.70;;
35239;SDS011;21376;50.954;4.716;2024-01-10T04:49:44;23.77;;;10.00;;
35239;SDS011;21376;50.954;4.716;2024-01-10T04:52:16;21.98;;;10.15;;
35239;SDS011;21376;50.954;4.716;2024-01-10T04:54:48;18.75;;;9.90;;
35239;SDS011;21376;50.954;4.716;2024-01-10T04:57:15;24.38;;;11.25;;
35239;SDS011;21376;50.954;4.716;2024-01-10T04:59:41;26.40;;;10.38;;
35239;SDS011;21376;50.954;4.716;2024-01-10T05:02:07;22.55;;;9.68;;
35239;SDS011;21376;50.954;4.716;2024-01-10T05:04:33;22.58;;;10.88;;
35239;SDS011;21376;50.954;4.716;2024-01-10T05:07:01;23.77;;;11.02;;
35239;SDS011;21376;50.954;4.716;2024-01-10T05:09:27;22.45;;;9.95;;
35239;SDS011;21376;50.954;4.716;2024-01-10T05:11:53;25.42;;;11.07;;
35239;SDS011;21376;50.954;4.716;2024-01-10T05:14:19;22.70;;;10.35;;
35239;SDS011;21376;50.954;4.716;2024-01-10T05:16:47;21.92;;;10.02;;
35239;SDS011;21376;50.954;4.716;2024-01-10T05:19:19;26.83;;;10.82;;
35239;SDS011;21376;50.954;4.716;2024-01-10T05:24:15;26.02;;;10.45;;
35239;SDS011;21376;50.954;4.716;2024-01-10T05:26:41;22.20;;;10.63;;
35239;SDS011;21376;50.954;4.716;2024-01-10T05:29:08;25.65;;;11.00;;
35239;SDS011;21376;50.954;4.716;2024-01-10T05:36:35;22.55;;;9.88;;
35239;SDS011;21376;50.954;4.716;2024-01-10T05:39:06;19.85;;;10.40;;
35239;SDS011;21376;50.954;4.716;2024-01-10T05:41:32;23.80;;;10.70;;
35239;SDS011;21376;50.954;4.716;2024-01-10T05:46:32;27.75;;;11.10;;
35239;SDS011;21376;50.954;4.716;2024-01-10T05:49:04;24.40;;;10.18;;
35239;SDS011;21376;50.954;4.716;2024-01-10T05:51:40;23.23;;;10.88;;
35239;SDS011;21376;50.954;4.716;2024-01-10T05:56:37;23.13;;;10.52;;
35239;SDS011;21376;50.954;4.716;2024-01-10T05:59:09;22.13;;;10.77;;
35239;SDS011;21376;50.954;4.716;2024-01-10T06:01:40;22.80;;;9.95;;
35239;SDS011;21376;50.954;4.716;2024-01-10T06:04:09;25.08;;;10.30;;
35239;SDS011;21376;50.954;4.716;2024-01-10T06:06:34;22.48;;;10.63;;
35239;SDS011;21376;50.954;4.716;2024-01-10T06:09:03;24.25;;;10.73;;
35239;SDS011;21376;50.954;4.716;2024-01-10T06:11:32;24.35;;;13.02;;
35239;SDS011;21376;50.954;4.716;2024-01-10T06:13:58;26.58;;;12.10;;
35239;SDS011;21376;50.954;4.716;2024-01-10T06:19:00;29.75;;;13.05;;
35239;SDS011;21376;50.954;4.716;2024-01-10T06:21:27;21.48;;;10.00;;
35239;SDS011;21376;50.954;4.716;2024-01-10T06:26:31;17.92;;;9.55;;
35239;SDS011;21376;50.954;4.716;2024-01-10T06:31:29;21.02;;;9.18;;
35239;SDS011;21376;50.954;4.716;2024-01-10T06:33:55;21.52;;;9.68;;
35239;SDS011;21376;50.954;4.716;2024-01-10T06:38:50;19.30;;;10.07;;
35239;SDS011;21376;50.954;4.716;2024-01-10T06:41:17;22.77;;;9.48;;
35239;SDS011;21376;50.954;4.716;2024-01-10T06:43:52;21.20;;;9.27;;
35239;SDS011;21376;50.954;4.716;2024-01-10T06:46:21;20.48;;;9.38;;
35239;SDS011;21376;50.954;4.716;2024-01-10T06:48:48;18.10;;;9.32;;
35239;SDS011;21376;50.954;4.716;2024-01-10T06:51:16;23.27;;;9.23;;
35239;SDS011;21376;50.954;4.716;2024-01-10T06:53:43;23.27;;;10.40;;
35239;SDS011;21376;50.954;4.716;2024-01-10T06:59:33;19.98;;;9.55;;
35239;SDS011;21376;50.954;4.716;2024-01-10T07:02:02;23.65;;;9.75;;
35239;SDS011;21376;50.954;4.716;2024-01-10T07:04:29;21.50;;;9.02;;
35239;SDS011;21376;50.954;4.716;2024-01-10T07:06:58;24.15;;;10.65;;
35239;SDS011;21376;50.954;4.716;2024-01-10T07:11:53;17.63;;;8.82;;
35239;SDS011;21376;50.954;4.716;2024-01-10T07:14:25;21.50;;;10.35;;
35239;SDS011;21376;50.954;4.716;2024-01-10T07:19:22;17.70;;;9.55;;
35239;SDS011;21376;50.954;4.716;2024-01-10T07:21:52;18.20;;;8.90;;
35239;SDS011;21376;50.954;4.716;2024-01-10T07:24:21;19.17;;;8.80;;
35239;SDS011;21376;50.954;4.716;2024-01-10T07:29:16;27.75;;;10.43;;
35239;SDS011;21376;50.954;4.716;2024-01-10T07:31:45;20.52;;;10.32;;
35239;SDS011;21376;50.954;4.716;2024-01-10T07:34:12;23.42;;;9.52;;
35239;SDS011;21376;50.954;4.716;2024-01-10T07:39:13;18.50;;;9.52;;
35239;SDS011;21376;50.954;4.716;2024-01-10T07:44:09;22.95;;;9.75;;
35239;SDS011;21376;50.954;4.716;2024-01-10T07:46:38;19.80;;;9.05;;
35239;SDS011;21376;50.954;4.716;2024-01-10T07:49:04;19.55;;;9.77;;
35239;SDS011;21376;50.954;4.716;2024-01-10T07:51:32;23.42;;;9.98;;
35239;SDS011;21376;50.954;4.716;2024-01-10T07:53:59;20.63;;;9.30;;
35239;SDS011;21376;50.954;4.716;2024-01-10T07:58:57;21.58;;;10.68;;
35239;SDS011;21376;50.954;4.716;2024-01-10T08:01:22;22.13;;;9.57;;
35239;SDS011;21376;50.954;4.716;2024-01-10T08:03:50;22.25;;;10.57;;
35239;SDS011;21376;50.954;4.716;2024-01-10T08:06:19;23.42;;;10.15;;
35239;SDS011;21376;50.954;4.716;2024-01-10T08:11:21;21.65;;;10.98;;
35239;SDS011;21376;50.954;4.716;2024-01-10T08:13:48;22.45;;;8.73;;
35239;SDS011;21376;50.954;4.716;2024-01-10T08:16:16;18.77;;;9.77;;
35239;SDS011;21376;50.954;4.716;2024-01-10T08:18:49;21.73;;;9.88;;
35239;SDS011;21376;50.954;4.716;2024-01-10T08:23:47;26.23;;;11.23;;
35239;SDS011;21376;50.954;4.716;2024-01-10T08:28:45;18.20;;;9.85;;
35239;SDS011;21376;50.954;4.716;2024-01-10T08:36:16;23.73;;;10.73;;
35239;SDS011;21376;50.954;4.716;2024-01-10T08:38:42;24.85;;;9.90;;
35239;SDS011;21376;50.954;4.716;2024-01-10T08:41:11;20.27;;;10.57;;
35239;SDS011;21376;50.954;4.716;2024-01-10T08:43:43;24.00;;;9.73;;
35239;SDS011;21376;50.954;4.716;2024-01-10T08:46:12;24.92;;;9.75;;
35239;SDS011;21376;50.954;4.716;2024-01-10T08:51:10;22.65;;;10.05;;
35239;SDS011;21376;50.954;4.716;2024-01-10T08:53:38;20.60;;;10.02;;
35239;SDS011;21376;50.954;4.716;2024-01-10T08:56:05;23.65;;;10.85;;
35239;SDS011;21376;50.954;4.716;2024-01-10T08:58:31;22.58;;;10.80;;
35239;SDS011;21376;50.954;4.716;2024-01-10T09:08:16;24.92;;;11.63;;
35239;SDS011;21376;50.954;4.716;2024-01-10T09:10:48;25.48;;;11.00;;
35239;SDS011;21376;50.954;4.716;2024-01-10T09:13:17;29.67;;;11.45;;
35239;SDS011;21376;50.954;4.716;2024-01-10T09:15:52;26.27;;;11.43;;
35239;SDS011;21376;50.954;4.716;2024-01-10T09:18:17;23.73;;;10.65;;
35239;SDS011;21376;50.954;4.716;2024-01-10T09:20:45;25.65;;;11.48;;
35239;SDS011;21376;50.954;4.716;2024-01-10T09:23:13;22.45;;;11.02;;
35239;SDS011;21376;50.954;4.716;2024-01-10T09:25:39;23.92;;;10.93;;
35239;SDS011;21376;50.954;4.716;2024-01-10T09:28:06;25.30;;;10.57;;
35239;SDS011;21376;50.954;4.716;2024-01-10T09:33:01;18.70;;;11.15;;
35239;SDS011;21376;50.954;4.716;2024-01-10T09:35:28;17.92;;;10.63;;
35239;SDS011;21376;50.954;4.716;2024-01-10T09:37:56;18.35;;;10.35;;
35239;SDS011;21376;50.954;4.716;2024-01-10T09:42:53;20.65;;;11.55;;
35239;SDS011;21376;50.954;4.716;2024-01-10T09:45:21;20.80;;;11.02;;
35239;SDS011;21376;50.954;4.716;2024-01-10T09:47:54;20.58;;;11.73;;
35239;SDS011;21376;50.954;4.716;2024-01-10T09:52:58;21.23;;;11.88;;
35239;SDS011;21376;50.954;4.716;2024-01-10T09:55:39;21.27;;;10.73;;
35239;SDS011;21376;50.954;4.716;2024-01-10T09:58:08;22.85;;;12.07;;
35239;SDS011;21376;50.954;4.716;2024-01-10T10:00:38;23.50;;;11.85;;
35239;SDS011;21376;50.954;4.716;2024-01-10T10:05:40;18.98;;;11.55;;
35239;SDS011;21376;50.954;4.716;2024-01-10T10:20:24;23.85;;;11.15;;
35239;SDS011;21376;50.954;4.716;2024-01-10T10:25:37;21.08;;;12.63;;
35239;SDS011;21376;50.954;4.716;2024-01-10T10:30:40;21.65;;;11.50;;
35239;SDS011;21376;50.954;4.716;2024-01-10T10:38:07;18.20;;;11.63;;
35239;SDS011;21376;50.954;4.716;2024-01-10T10:44:02;22.17;;;11.98;;
35239;SDS011;21376;50.954;4.716;2024-01-10T10:46:32;19.52;;;11.75;;
35239;SDS011;21376;50.954;4.716;2024-01-10T10:51:36;20.70;;;11.63;;
35239;SDS011;21376;50.954;4.716;2024-01-10T10:54:09;21.58;;;12.15;;
35239;SDS011;21376;50.954;4.716;2024-01-10T10:56:36;21.58;;;12.52;;
35239;SDS011;21376;50.954;4.716;2024-01-10T11:38:48;24.67;;;11.85;;
35239;SDS011;21376;50.954;4.716;2024-01-10T11:41:29;19.33;;;11.50;;
35239;SDS011;21376;50.954;4.716;2024-01-10T11:46:55;24.60;;;12.25;;
35239;SDS011;21376;50.954;4.716;2024-01-10T11:51:56;22.77;;;12.77;;
35239;SDS011;21376;50.954;4.716;2024-01-10T11:57:38;22.15;;;11.68;;
35239;SDS011;21376;50.954;4.716;2024-01-10T12:02:36;22.85;;;12.77;;
35239;SDS011;21376;50.954;4.716;2024-01-10T12:17:41;22.20;;;12.82;;
35239;SDS011;21376;50.954;4.716;2024-01-10T12:20:14;19.85;;;12.00;;
35239;SDS011;21376;50.954;4.716;2024-01-10T12:34:16;24.00;;;11.85;;
35239;SDS011;21376;50.954;4.716;2024-01-10T12:51:51;23.80;;;14.07;;
35239;SDS011;21376;50.954;4.716;2024-01-10T12:54:18;21.77;;;11.27;;
35239;SDS011;21376;50.954;4.716;2024-01-10T12:56:43;25.80;;;14.00;;
35239;SDS011;21376;50.954;4.716;2024-01-10T12:59:11;29.63;;;13.90;;
35239;SDS011;21376;50.954;4.716;2024-01-10T13:01:40;21.30;;;12.45;;
35239;SDS011;21376;50.954;4.716;2024-01-10T13:06:37;24.33;;;13.27;;
35239;SDS011;21376;50.954;4.716;2024-01-10T13:09:07;22.92;;;12.95;;
35239;SDS011;21376;50.954;4.716;2024-01-10T13:11:36;25.15;;;13.15;;
35239;SDS011;21376;50.954;4.716;2024-01-10T13:14:05;25.13;;;13.52;;
35239;SDS011;21376;50.954;4.716;2024-01-10T13:16:34;24.05;;;13.48;;
35239;SDS011;21376;50.954;4.716;2024-01-10T13:19:03;24.67;;;12.73;;
35239;SDS011;21376;50.954;4.716;2024-01-10T13:21:29;23.50;;;13.80;;
35239;SDS011;21376;50.954;4.716;2024-01-10T13:23:58;22.98;;;13.38;;
35239;SDS011;21376;50.954;4.716;2024-01-10T13:26:26;24.70;;;12.75;;
35239;SDS011;21376;50.954;4.716;2024-01-10T13:28:55;26.30;;;13.27;;
35239;SDS011;21376;50.954;4.716;2024-01-10T13:31:27;26.40;;;13.45;;
35239;SDS011;21376;50.954;4.716;2024-01-10T13:33:56;25.92;;;13.27;;
35239;SDS011;21376;50.954;4.716;2024-01-10T13:36:22;24.25;;;12.38;;
35239;SDS011;21376;50.954;4.716;2024-01-10T13:38:56;24.45;;;13.50;;
35239;SDS011;21376;50.954;4.716;2024-01-10T13:41:23;24.60;;;13.73;;
35239;SDS011;21376;50.954;4.716;2024-01-10T13:43:52;22.38;;;13.73;;
35239;SDS011;21376;50.954;4.716;2024-01-10T13:49:53;29.02;;;14.70;;
35239;SDS011;21376;50.954;4.716;2024-01-10T13:52:22;31.67;;;13.40;;
35239;SDS011;21376;50.954;4.716;2024-01-10T13:54:47;24.73;;;13.40;;
35239;SDS011;21376;50.954;4.716;2024-01-10T13:59:46;25.98;;;14.68;;
35239;SDS011;21376;50.954;4.716;2024-01-10T14:02:16;24.13;;;13.73;;
35239;SDS011;21376;50.954;4.716;2024-01-10T14:18:26;24.45;;;13.73;;
35239;SDS011;21376;50.954;4.716;2024-01-10T14:23:23;26.38;;;13.60;;
35239;SDS011;21376;50.954;4.716;2024-01-10T14:28:21;24.35;;;13.45;;
35239;SDS011;21376;50.954;4.716;2024-01-10T14:33:19;27.08;;;14.07;;
35239;SDS011;21376;50.954;4.716;2024-01-10T14:36:00;29.10;;;15.13;;
35239;SDS011;21376;50.954;4.716;2024-01-10T14:38:29;29.95;;;13.77;;
35239;SDS011;21376;50.954;4.716;2024-01-10T15:09:22;27.85;;;14.98;;
35239;SDS011;21376;50.954;4.716;2024-01-10T15:11:51;28.75;;;14.85;;
35239;SDS011;21376;50.954;4.716;2024-01-10T15:14:21;34.75;;;15.27;;
35239;SDS011;21376;50.954;4.716;2024-01-10T15:17:06;28.77;;;14.05;;
35239;SDS011;21376;50.954;4.716;2024-01-10T15:19:36;27.92;;;14.63;;
35239;SDS011;21376;50.954;4.716;2024-01-10T15:24:31;29.08;;;14.32;;
35239;SDS011;21376;50.954;4.716;2024-01-10T15:27:00;31.90;;;15.15;;
35239;SDS011;21376;50.954;4.716;2024-01-10T15:29:30;33.45;;;15.18;;
35239;SDS011;21376;50.954;4.716;2024-01-10T15:31:59;31.58;;;15.48;;
35239;SDS011;21376;50.954;4.716;2024-01-10T15:37:01;34.88;;;15.52;;
35239;SDS011;21376;50.954;4.716;2024-01-10T15:39:27;31.48;;;15.73;;
35239;SDS011;21376;50.954;4.716;2024-01-10T15:41:58;30.38;;;15.13;;
35239;SDS011;21376;50.954;4.716;2024-01-10T15:46:56;37.90;;;15.65;;
35239;SDS011;21376;50.954;4.716;2024-01-10T15:49:25;34.65;;;15.55;;
35239;SDS011;21376;50.954;4.716;2024-01-10T15:51:54;31.27;;;15.10;;
35239;SDS011;21376;50.954;4.716;2024-01-10T15:54:26;31.58;;;16.25;;
35239;SDS011;21376;50.954;4.716;2024-01-10T15:56:56;35.47;;;15.57;;
35239;SDS011;21376;50.954;4.716;2024-01-10T15:59:25;30.58;;;15.00;;
35239;SDS011;21376;50.954;4.716;2024-01-10T16:04:23;35.30;;;16.52;;
35239;SDS011;21376;50.954;4.716;2024-01-10T16:06:52;39.17;;;18.23;;
35239;SDS011;21376;50.954;4.716;2024-01-10T16:09:17;35.58;;;15.98;;
35239;SDS011;21376;50.954;4.716;2024-01-10T16:11:45;39.08;;;19.00;;
35239;SDS011;21376;50.954;4.716;2024-01-10T16:16:43;34.35;;;16.42;;
35239;SDS011;21376;50.954;4.716;2024-01-10T16:24:09;34.63;;;17.33;;
35239;SDS011;21376;50.954;4.716;2024-01-10T16:26:38;42.35;;;17.35;;
35239;SDS011;21376;50.954;4.716;2024-01-10T16:29:08;35.67;;;18.40;;
35239;SDS011;21376;50.954;4.716;2024-01-10T16:34:06;32.60;;;17.35;;
35239;SDS011;21376;50.954;4.716;2024-01-10T16:36:38;39.58;;;18.23;;
35239;SDS011;21376;50.954;4.716;2024-01-10T16:39:07;32.22;;;16.85;;
35239;SDS011;21376;50.954;4.716;2024-01-10T16:44:04;45.47;;;21.08;;
35239;SDS011;21376;50.954;4.716;2024-01-10T16:46:33;45.15;;;19.67;;
35239;SDS011;21376;50.954;4.716;2024-01-10T16:51:30;42.40;;;19.88;;
35239;SDS011;21376;50.954;4.716;2024-01-10T16:54:11;39.80;;;19.38;;
35239;SDS011;21376;50.954;4.716;2024-01-10T16:59:16;43.45;;;18.92;;
35239;SDS011;21376;50.954;4.716;2024-01-10T17:01:43;44.53;;;18.70;;
35239;SDS011;21376;50.954;4.716;2024-01-10T17:04:15;40.35;;;20.58;;
35239;SDS011;21376;50.954;4.716;2024-01-10T17:09:25;35.55;;;17.20;;
35239;SDS011;21376;50.954;4.716;2024-01-10T17:14:34;41.40;;;19.15;;
35239;SDS011;21376;50.954;4.716;2024-01-10T17:17:03;42.92;;;18.23;;
35239;SDS011;21376;50.954;4.716;2024-01-10T17:19:32;37.90;;;18.10;;
35239;SDS011;21376;50.954;4.716;2024-01-10T17:21:58;39.72;;;18.75;;
35239;SDS011;21376;50.954;4.716;2024-01-10T17:24:27;40.85;;;18.08;;
35239;SDS011;21376;50.954;4.716;2024-01-10T17:26:56;33.65;;;17.17;;
35239;SDS011;21376;50.954;4.716;2024-01-10T17:29:24;38.83;;;17.90;;
35239;SDS011;21376;50.954;4.716;2024-01-10T17:31:50;36.58;;;16.17;;
35239;SDS011;21376;50.954;4.716;2024-01-10T17:34:19;39.97;;;18.00;;
35239;SDS011;21376;50.954;4.716;2024-01-10T17:36:48;41.33;;;18.17;;
35239;SDS011;21376;50.954;4.716;2024-01-10T17:39:14;38.97;;;17.88;;
35239;SDS011;21376;50.954;4.716;2024-01-10T17:41:46;36.85;;;17.67;;
35239;SDS011;21376;50.954;4.716;2024-01-10T17:44:26;39.30;;;19.20;;
35239;SDS011;21376;50.954;4.716;2024-01-10T17:49:23;45.35;;;19.70;;
35239;SDS011;21376;50.954;4.716;2024-01-10T17:51:49;39.80;;;19.70;;
35239;SDS011;21376;50.954;4.716;2024-01-10T17:54:18;43.15;;;19.15;;
35239;SDS011;21376;50.954;4.716;2024-01-10T17:56:50;42.90;;;21.05;;
35239;SDS011;21376;50.954;4.716;2024-01-10T17:59:19;54.95;;;26.90;;
35239;SDS011;21376;50.954;4.716;2024-01-10T18:04:17;49.55;;;21.05;;
35239;SDS011;21376;50.954;4.716;2024-01-10T18:06:44;39.10;;;19.42;;
35239;SDS011;21376;50.954;4.716;2024-01-10T18:09:13;47.92;;;20.65;;
35239;SDS011;21376;50.954;4.716;2024-01-10T18:11:42;44.42;;;19.05;;
35239;SDS011;21376;50.954;4.716;2024-01-10T18:16:41;45.80;;;18.45;;
35239;SDS011;21376;50.954;4.716;2024-01-10T18:19:09;43.25;;;19.23;;
35239;SDS011;21376;50.954;4.716;2024-01-10T18:21:38;40.45;;;19.75;;
35239;SDS011;21376;50.954;4.716;2024-01-10T18:24:09;39.90;;;19.80;;
35239;SDS011;21376;50.954;4.716;2024-01-10T18:37:01;59.88;;;26.90;;
35239;SDS011;21376;50.954;4.716;2024-01-10T18:39:33;68.90;;;30.23;;
35239;SDS011;21376;50.954;4.716;2024-01-10T18:42:02;62.20;;;25.85;;
35239;SDS011;21376;50.954;4.716;2024-01-10T18:44:31;58.45;;;24.85;;
35239;SDS011;21376;50.954;4.716;2024-01-10T18:49:34;50.30;;;23.65;;
35239;SDS011;21376;50.954;4.716;2024-01-10T18:54:37;70.97;;;31.42;;
35239;SDS011;21376;50.954;4.716;2024-01-10T18:57:05;72.28;;;29.90;;
35239;SDS011;21376;50.954;4.716;2024-01-10T18:59:43;86.07;;;34.17;;
35239;SDS011;21376;50.954;4.716;2024-01-10T19:04:42;70.35;;;28.80;;
35239;SDS011;21376;50.954;4.716;2024-01-10T19:07:08;64.82;;;24.40;;
35239;SDS011;21376;50.954;4.716;2024-01-10T19:09:34;67.80;;;26.63;;
35239;SDS011;21376;50.954;4.716;2024-01-10T19:12:01;58.50;;;25.20;;
35239;SDS011;21376;50.954;4.716;2024-01-10T19:17:22;58.10;;;24.92;;
35239;SDS011;21376;50.954;4.716;2024-01-10T19:22:20;56.75;;;24.58;;
35239;SDS011;21376;50.954;4.716;2024-01-10T19:27:31;49.42;;;22.48;;
35239;SDS011;21376;50.954;4.716;2024-01-10T19:30:03;54.47;;;25.33;;
35239;SDS011;21376;50.954;4.716;2024-01-10T19:32:29;56.63;;;22.77;;
35239;SDS011;21376;50.954;4.716;2024-01-10T19:37:27;44.97;;;20.42;;
35239;SDS011;21376;50.954;4.716;2024-01-10T19:42:26;41.55;;;19.08;;
35239;SDS011;21376;50.954;4.716;2024-01-10T19:44:56;47.45;;;19.95;;
35239;SDS011;21376;50.954;4.716;2024-01-10T19:47:22;45.55;;;18.50;;
35239;SDS011;21376;50.954;4.716;2024-01-10T19:49:49;38.90;;;18.27;;
35239;SDS011;21376;50.954;4.716;2024-01-10T19:52:18;49.45;;;19.88;;
35239;SDS011;21376;50.954;4.716;2024-01-10T19:57:16;53.78;;;22.23;;
35239;SDS011;21376;50.954;4.716;2024-01-10T19:59:42;48.33;;;21.70;;
35239;SDS011;21376;50.954;4.716;2024-01-10T20:02:09;46.55;;;21.02;;
35239;SDS011;21376;50.954;4.716;2024-01-10T20:04:36;44.65;;;21.30;;
35239;SDS011;21376;50.954;4.716;2024-01-10T20:07:04;46.72;;;20.35;;
35239;SDS011;21376;50.954;4.716;2024-01-10T20:09:30;42.60;;;18.80;;
35239;SDS011;21376;50.954;4.716;2024-01-10T20:14:57;45.90;;;20.65;;
35239;SDS011;21376;50.954;4.716;2024-01-10T20:17:33;45.10;;;20.77;;
35239;SDS011;21376;50.954;4.716;2024-01-10T20:25:51;46.17;;;18.45;;
35239;SDS011;21376;50.954;4.716;2024-01-10T20:28:23;46.22;;;20.67;;
35239;SDS011;21376;50.954;4.716;2024-01-10T20:30:53;44.70;;;20.80;;
35239;SDS011;21376;50.954;4.716;2024-01-10T20:35:51;56.33;;;23.70;;
35239;SDS011;21376;50.954;4.716;2024-01-10T20:43:48;58.72;;;24.70;;
35239;SDS011;21376;50.954;4.716;2024-01-10T20:48:46;64.22;;;27.92;;
35239;SDS011;21376;50.954;4.716;2024-01-10T20:53:38;85.97;;;33.80;;
35239;SDS011;21376;50.954;4.716;2024-01-10T20:56:06;81.30;;;34.22;;
35239;SDS011;21376;50.954;4.716;2024-01-10T21:01:07;96.07;;;39.35;;
35239;SDS011;21376;50.954;4.716;2024-01-10T21:03:46;103.60;;;40.22;;
35239;SDS011;21376;50.954;4.716;2024-01-10T21:06:15;75.20;;;31.50;;
35239;SDS011;21376;50.954;4.716;2024-01-10T21:11:14;66.63;;;29.67;;
35239;SDS011;21376;50.954;4.716;2024-01-10T21:16:23;75.28;;;32.30;;
35239;SDS011;21376;50.954;4.716;2024-01-10T21:24:08;88.60;;;35.53;;
35239;SDS011;21376;50.954;4.716;2024-01-10T21:26:40;79.85;;;34.05;;
35239;SDS011;21376;50.954;4.716;2024-01-10T21:29:09;85.07;;;33.63;;
35239;SDS011;21376;50.954;4.716;2024-01-10T21:31:42;91.10;;;36.10;;
35239;SDS011;21376;50.954;4.716;2024-01-10T21:34:09;87.22;;;34.13;;
35239;SDS011;21376;50.954;4.716;2024-01-10T21:36:35;80.03;;;34.28;;
35239;SDS011;21376;50.954;4.716;2024-01-10T21:39:04;81.03;;;33.70;;
35239;SDS011;21376;50.954;4.716;2024-01-10T21:41:32;75.93;;;32.45;;
35239;SDS011;21376;50.954;4.716;2024-01-10T21:43:57;74.53;;;31.40;;
35239;SDS011;21376;50.954;4.716;2024-01-10T21:46:32;80.20;;;33.85;;
35239;SDS011;21376;50.954;4.716;2024-01-10T21:49:01;62.70;;;30.45;;
35239;SDS011;21376;50.954;4.716;2024-01-10T21:53:52;81.00;;;33.90;;
35239;SDS011;21376;50.954;4.716;2024-01-10T21:56:24;69.88;;;30.77;;
35239;SDS011;21376;50.954;4.716;2024-01-10T21:58:51;67.15;;;29.40;;